Plaquemine, LA (70764)

6:34 AM CDT on August 29, 2014 (GMT -0500)
Axiall-Plaquemine | Change Station
CLOSE
Current Station
Personal Weather Station
Location: Plaquemine, LA
Elevation: 46 ft
Nearby Weather Stations

Elev 46 ft 30.27 °N, 91.18 °W | Updated 4 seconds ago

Partly Cloudy
Partly Cloudy
77.2 °F
Feels Like 79 °F
N
3.0
Wind Variable Wind from East
Gusts 9.0 mph

Today
High -- | Low -- °F
--% Chance of Precip.
Yesterday
High -- | Low -- °F
Precip. -- in
6:40 AM 7:31 PM
Waxing Crescent, 13% visible
Pressure 29.95 in
Visibility 9.0 miles
Clouds Clear
Heat Index 79 °F
Dew Point 75 °F
Humidity 92%
Rainfall 0.00 in
Snow Depth Not available.
UV 0 out of 12
Pollen 7.70 out of 12
Air Quality Not available.
Flu Activity Not available.
METAR KBTR 291053Z AUTO 03003KT 9SM CLR 24/23 A2995 RMK AO2 SLP140 T02390228 TSNO

More Conditions Fewer Conditions

Pressure 29.95 in
Visibility 9.0 miles
Clouds Clear
Heat Index 79 °F
Dew Point 75 °F
Humidity 92%
Rainfall 0.00 in
Snow Depth Not available.
UV 0 out of 12
Pollen 7.70 out of 12
Air Quality Not available.
Flu Activity Not available.
METAR KBTR 291053Z AUTO 03003KT 9SM CLR 24/23 A2995 RMK AO2 SLP140 T02390228 TSNO

More Conditions Fewer Conditions

10-Day Weather Forecast

Almanac

Astronomy

Aug. 29, 2014 Rise Set
Actual Time 6:40 AM CDT 7:31 PM CDT
Civil Twilight 6:15 AM CDT 7:55 PM CDT
Nautical Twilight 5:46 AM CDT 8:24 PM CDT
Astronomical Twilight 5:16 AM CDT 8:54 PM CDT
Moon 10:10 AM CDT 9:49 PM CDT
Length of Visible Light 13h 40m
Length of Day
12h 51m
Tomorrow will be 1m 44s shorter.
Waxing Crescent, 13% of the Moon is Illuminated
Today
Waxing Crescent
Sep 2
First Quarter
Sep 8
Full
Sep 15
Last Quarter
Sep 24
New

Today's Extremes

State Highs State Lows

Community

WunderPhotos

Upload Photos

1,748,214 photos uploaded!

Nearby

Snow Depth

Station Depth Elevation
No new snow has been reported.

Earthquake Activity

City Distance Mag. Time & Date
No recent earthquake activity has been reported nearby.
Minimum magnitude displayed is 2.5.

Coastal Water Temperatures

Place Temperature
No Stations Reporting

Nearby Weather Stations